Leontios H — SVCL6 — position and weather

sailwx.info

Track history (hours):
 
Tides and Currents Weather Stations Pressure Air Temp Water Temp Dewpoint Dewpoint Depression Visibility Wind Speed Wind Dir Waves Ship Positions

Leontios H

Last reported at 2017-Nov-23 05:30 UTC. Time now 2017-Nov-23 05:51 UTC.
Position N 60°49' E 005°01'.

Length 250 m; draft 13.5 m.

Type: Tanker. MMSI: 241454000.

Date/timePositionNaut miles runAvg speedWind from/ knotsBaromVisibWave heightAir tempDewpointWater temp
2017-Nov-23 05:30N 60°49' E 005°01'0 0.0
2017-Nov-23 05:00N 60°49' E 005°01'0 0.0
2017-Nov-23 04:29N 60°49' E 005°01'0 0.0
2017-Nov-23 04:00N 60°49' E 005°01'0 0.0
2017-Nov-23 03:28N 60°49' E 005°01'0 0.0
2017-Nov-23 02:59N 60°49' E 005°01'0 0.0
2017-Nov-23 02:29N 60°49' E 005°01'0 0.0
2017-Nov-23 01:59N 60°49' E 005°01'0 0.0
2017-Nov-23 01:29N 60°49' E 005°01'0 0.0
2017-Nov-23 00:59N 60°49' E 005°01'0 0.0
2017-Nov-23 00:29N 60°49' E 005°01'0 0.0
2017-Nov-22 23:59N 60°49' E 005°01'0 0.0
2017-Nov-22 23:30N 60°49' E 005°01'0 0.0
2017-Nov-22 22:58N 60°49' E 005°01'0 0.0
2017-Nov-22 22:25N 60°49' E 005°01'0 0.0
2017-Nov-22 21:58N 60°49' E 005°01'0 0.0
2017-Nov-22 21:28N 60°49' E 005°01'0 0.0
2017-Nov-22 20:58N 60°49' E 005°01'0 0.0
2017-Nov-22 20:28N 60°49' E 005°01'0 0.0
2017-Nov-22 20:00N 60°49' E 005°01'0 0.0
2017-Nov-22 19:30N 60°49' E 005°01'  
2017-Nov-19 07:19N 52°10' E 003°29'410.8
2017-Nov-19 06:59N 52°08' E 003°33'511.4
2017-Nov-19 06:30N 52°05' E 003°41'510.6
2017-Nov-19 06:00N 52°03' E 003°49'2 4.9
2017-Nov-19 05:30N 52°02' E 003°52'3 5.5
2017-Nov-19 05:00N 52°02' E 003°56'3 6.4
2017-Nov-19 04:30N 52°00' E 004°01'4 7.6
2017-Nov-19 04:00N 51°58' E 004°05'0 0.9
2017-Nov-19 03:26N 51°58' E 004°04'0 0.0
2017-Nov-19 02:56N 51°58' E 004°04'0 0.0
2017-Nov-19 02:26N 51°58' E 004°04'0 0.0
2017-Nov-19 01:59N 51°58' E 004°04'0 0.0
2017-Nov-19 01:26N 51°58' E 004°04'0 0.0
2017-Nov-19 00:56N 51°58' E 004°04'0 0.0
2017-Nov-19 00:26N 51°58' E 004°04'0 0.0
2017-Nov-18 23:59N 51°58' E 004°04'0 0.0
2017-Nov-18 23:26N 51°58' E 004°04'0 0.0
2017-Nov-18 22:56N 51°58' E 004°04'0 0.0
2017-Nov-18 22:29N 51°58' E 004°04'0 0.0
2017-Nov-18 21:56N 51°58' E 004°04'0 0.0
2017-Nov-18 21:26N 51°58' E 004°04'0 0.0
2017-Nov-18 20:59N 51°58' E 004°04'0 0.0
2017-Nov-18 20:23N 51°58' E 004°04'0 0.0
2017-Nov-18 19:59N 51°58' E 004°04'0 0.0
2017-Nov-18 19:29N 51°58' E 004°04'0 0.0
2017-Nov-18 18:56N 51°58' E 004°04'0 0.0
2017-Nov-18 18:26N 51°58' E 004°04'0 0.0
2017-Nov-18 17:56N 51°58' E 004°04'0 0.0
2017-Nov-18 17:26N 51°58' E 004°04'0 0.0
2017-Nov-18 16:59N 51°58' E 004°04'0 0.0
2017-Nov-18 16:29N 51°58' E 004°04'0 0.0
2017-Nov-18 15:53N 51°58' E 004°04'0 0.0
2017-Nov-18 15:29N 51°58' E 004°04'0 0.0
2017-Nov-18 14:59N 51°58' E 004°04'0 0.0
2017-Nov-18 14:26N 51°58' E 004°04'0 0.0
2017-Nov-18 13:59N 51°58' E 004°04'0 0.0
2017-Nov-18 13:29N 51°58' E 004°04'0 0.0
2017-Nov-18 12:59N 51°58' E 004°04'0 0.0
2017-Nov-18 12:29N 51°58' E 004°04'0 0.0
2017-Nov-18 11:59N 51°58' E 004°04'0 0.0
2017-Nov-18 11:20N 51°58' E 004°04'0 0.0
2017-Nov-18 10:56N 51°58' E 004°04'0 0.0
2017-Nov-18 10:26N 51°58' E 004°04'0 0.0
2017-Nov-18 09:56N 51°58' E 004°04'0 0.0
2017-Nov-18 09:17N 51°58' E 004°04'0 0.0
2017-Nov-18 08:59N 51°58' E 004°04'0 0.0
2017-Nov-18 08:26N 51°58' E 004°04'0 0.0
2017-Nov-18 07:59N 51°58' E 004°04'0 0.0
2017-Nov-18 07:29N 51°58' E 004°04'0 0.0
2017-Nov-18 06:53N 51°58' E 004°04'0 0.0
2017-Nov-18 06:29N 51°58' E 004°04'0 0.0
2017-Nov-18 05:59N 51°58' E 004°04'0 0.0
2017-Nov-18 05:29N 51°58' E 004°04'0 0.0
2017-Nov-18 04:59N 51°58' E 004°04'0 0.0
2017-Nov-18 04:23N 51°58' E 004°04'0 0.0
2017-Nov-18 03:59N 51°58' E 004°04'0 0.0
2017-Nov-18 03:29N 51°58' E 004°04'0 0.0
2017-Nov-18 02:59N 51°58' E 004°04'0 0.0
2017-Nov-18 02:20N 51°58' E 004°04'0 0.0
2017-Nov-18 01:56N 51°58' E 004°04'0 0.0
2017-Nov-18 01:17N 51°58' E 004°04'0 0.0
2017-Nov-18 00:56N 51°58' E 004°04'0 0.0
2017-Nov-18 00:26N 51°58' E 004°04'0 0.0
2017-Nov-17 23:53N 51°58' E 004°04'0 0.0
2017-Nov-17 23:29N 51°58' E 004°04'0 0.0
2017-Nov-17 22:56N 51°58' E 004°04'0 0.0
2017-Nov-17 22:20N 51°58' E 004°04'0 0.0
2017-Nov-17 21:53N 51°58' E 004°04'0 0.0
2017-Nov-17 21:26N 51°58' E 004°04'0 0.0
2017-Nov-17 20:59N 51°58' E 004°04'0 0.0
2017-Nov-17 20:29N 51°58' E 004°04'0 0.0
2017-Nov-17 20:00N 51°58' E 004°04'0 0.9
2017-Nov-17 19:31N 51°58' E 004°05'2 4.8
2017-Nov-17 19:01N 51°59' E 004°02'4 8.2
2017-Nov-17 18:31N 52°00' E 003°56'4 7.9
2017-Nov-17 18:00N 52°01' E 003°49'4 8.5
2017-Nov-17 17:31N 52°00' E 003°42'510.3
2017-Nov-17 17:00N 52°04' E 003°37'4 7.3
2017-Nov-17 16:27N 52°07' E 003°32'2 5.0
2017-Nov-17 16:00N 52°09' E 003°32'2 2.9
2017-Nov-17 15:22N 52°11' E 003°34'0 0.2
2017-Nov-17 14:58N 52°11' E 003°34'0 0.0
2017-Nov-17 13:46N 52°11' E 003°34'0 0.0
2017-Nov-17 08:04N 52°10' E 003°33'0 0.0
2017-Nov-17 07:40N 52°10' E 003°33'0 0.0
2017-Nov-17 07:28N 52°10' E 003°33'0 0.0
2017-Nov-17 06:58N 52°10' E 003°33'0 0.0
2017-Nov-17 06:16N 52°10' E 003°33'0 0.0
2017-Nov-17 05:58N 52°10' E 003°33'0 0.0
2017-Nov-17 05:28N 52°10' E 003°33'0 0.1
2017-Nov-17 03:58N 52°11' E 003°34'0 0.1
2017-Nov-17 03:22N 52°11' E 003°34'0 0.0
2017-Nov-17 02:10N 52°11' E 003°34'0 0.0
2017-Nov-17 01:46N 52°11' E 003°34'0 0.1
2017-Nov-16 20:37N 52°10' E 003°33'0 0.1
2017-Nov-16 20:28N 52°10' E 003°33'0 0.0
2017-Nov-16 19:19N 52°10' E 003°33'0 0.0
2017-Nov-16 18:58N 52°10' E 003°33'0 0.1
2017-Nov-16 16:22N 52°11' E 003°34'0 0.1
2017-Nov-16 15:52N 52°11' E 003°34'0 0.1
2017-Nov-16 15:28N 52°11' E 003°34'0 0.0
2017-Nov-16 14:22N 52°11' E 003°34'0 0.0
2017-Nov-16 13:52N 52°11' E 003°34'0 0.0
2017-Nov-16 13:28N 52°11' E 003°34'0 0.0
2017-Nov-16 12:58N 52°11' E 003°34'0 0.1
2017-Nov-16 12:28N 52°11' E 003°34'1 1.2
2017-Nov-16 12:00N 52°11' E 003°33'4 6.6
2017-Nov-16 11:26N 52°12' E 003°27'27912.0
2017-Nov-15 12:08N 56°28' E 006°38'212.8
2017-Nov-15 11:59N 56°29' E 006°40'712.8
2017-Nov-15 11:29N 56°35' E 006°45'612.9
2017-Nov-15 10:59N 56°41' E 006°50'13511.2
2017-Nov-14 22:55N 57°49' E 010°25'512.6
2017-Nov-14 22:30N 57°49' E 010°35'611.9
2017-Nov-14 21:58N 57°48' E 010°47'5 9.3
2017-Nov-14 21:29N 57°46' E 010°54'3 6.8
2017-Nov-14 21:00N 57°43' E 010°56'612.0
2017-Nov-14 20:31N 57°39' E 011°04'612.3
2017-Nov-14 20:00N 57°35' E 011°12'612.4
2017-Nov-14 19:30N 57°31' E 011°21'611.8
2017-Nov-14 19:00N 57°26' E 011°27'612.0
2017-Nov-14 18:30N 57°20' E 011°30'612.2
2017-Nov-14 18:00N 57°14' E 011°34'612.1
2017-Nov-14 17:29N 57°09' E 011°38'611.9
2017-Nov-14 16:59N 57°03' E 011°42'611.7
2017-Nov-14 16:30N 56°57' E 011°45'9811.5
2017-Nov-14 07:55N 55°22' E 011°02'5 9.4
2017-Nov-14 07:26N 55°18' E 011°03'511.0
2017-Nov-14 06:58N 55°13' E 011°06'612.2
2017-Nov-14 06:26N 55°08' E 010°60'512.5
2017-Nov-14 06:01N 55°02' E 011°00'612.7
2017-Nov-14 05:31N 54°57' E 010°55'713.3
2017-Nov-14 05:01N 54°51' E 010°50'713.0
2017-Nov-14 04:30N 54°44' E 010°47'510.7
2017-Nov-14 04:00N 54°39' E 010°51'612.0
2017-Nov-14 03:31N 54°36' E 010°59'611.7
2017-Nov-14 03:01N 54°36' E 011°09'611.8
2017-Nov-14 02:31N 54°33' E 011°19'611.5
2017-Nov-14 02:01N 54°31' E 011°28'611.6
2017-Nov-14 01:31N 54°29' E 011°37'611.9
2017-Nov-14 01:00N 54°27' E 011°47'911.7
2017-Nov-14 00:17N 54°26' E 012°01'311.7
2017-Nov-14 00:00N 54°26' E 012°07'510.0
2017-Nov-13 23:31N 54°30' E 012°13'510.2
2017-Nov-13 23:01N 54°35' E 012°16'  
Track history (hours):
 
Tides and Currents Weather Stations Pressure Air Temp Water Temp Dewpoint Dewpoint Depression Visibility Wind Speed Wind Dir Waves Ship Positions

Leontios H

Last reported at 2017-Nov-23 05:30 UTC. Time now 2017-Nov-23 05:51 UTC.
Position N 60°49' E 005°01'.

Length 250 m; draft 13.5 m.

Type: Tanker. MMSI: 241454000.

Date/timePositionNaut miles runAvg speedWind from/ knotsBaromVisibWave heightAir tempDewpointWater temp
2017-Nov-23 05:30N 60°49' E 005°01'0 0.0
2017-Nov-23 05:00N 60°49' E 005°01'0 0.0
2017-Nov-23 04:29N 60°49' E 005°01'0 0.0
2017-Nov-23 04:00N 60°49' E 005°01'0 0.0
2017-Nov-23 03:28N 60°49' E 005°01'0 0.0
2017-Nov-23 02:59N 60°49' E 005°01'0 0.0
2017-Nov-23 02:29N 60°49' E 005°01'0 0.0
2017-Nov-23 01:59N 60°49' E 005°01'0 0.0
2017-Nov-23 01:29N 60°49' E 005°01'0 0.0
2017-Nov-23 00:59N 60°49' E 005°01'0 0.0
2017-Nov-23 00:29N 60°49' E 005°01'0 0.0
2017-Nov-22 23:59N 60°49' E 005°01'0 0.0
2017-Nov-22 23:30N 60°49' E 005°01'0 0.0
2017-Nov-22 22:58N 60°49' E 005°01'0 0.0
2017-Nov-22 22:25N 60°49' E 005°01'0 0.0
2017-Nov-22 21:58N 60°49' E 005°01'0 0.0
2017-Nov-22 21:28N 60°49' E 005°01'0 0.0
2017-Nov-22 20:58N 60°49' E 005°01'0 0.0
2017-Nov-22 20:28N 60°49' E 005°01'0 0.0
2017-Nov-22 20:00N 60°49' E 005°01'0 0.0
2017-Nov-22 19:30N 60°49' E 005°01'  
2017-Nov-19 07:19N 52°10' E 003°29'410.8
2017-Nov-19 06:59N 52°08' E 003°33'511.4
2017-Nov-19 06:30N 52°05' E 003°41'510.6
2017-Nov-19 06:00N 52°03' E 003°49'2 4.9
2017-Nov-19 05:30N 52°02' E 003°52'3 5.5
2017-Nov-19 05:00N 52°02' E 003°56'3 6.4
2017-Nov-19 04:30N 52°00' E 004°01'4 7.6
2017-Nov-19 04:00N 51°58' E 004°05'0 0.9
2017-Nov-19 03:26N 51°58' E 004°04'0 0.0
2017-Nov-19 02:56N 51°58' E 004°04'0 0.0
2017-Nov-19 02:26N 51°58' E 004°04'0 0.0
2017-Nov-19 01:59N 51°58' E 004°04'0 0.0
2017-Nov-19 01:26N 51°58' E 004°04'0 0.0
2017-Nov-19 00:56N 51°58' E 004°04'0 0.0
2017-Nov-19 00:26N 51°58' E 004°04'0 0.0
2017-Nov-18 23:59N 51°58' E 004°04'0 0.0
2017-Nov-18 23:26N 51°58' E 004°04'0 0.0
2017-Nov-18 22:56N 51°58' E 004°04'0 0.0
2017-Nov-18 22:29N 51°58' E 004°04'0 0.0
2017-Nov-18 21:56N 51°58' E 004°04'0 0.0
2017-Nov-18 21:26N 51°58' E 004°04'0 0.0
2017-Nov-18 20:59N 51°58' E 004°04'0 0.0
2017-Nov-18 20:23N 51°58' E 004°04'0 0.0
2017-Nov-18 19:59N 51°58' E 004°04'0 0.0
2017-Nov-18 19:29N 51°58' E 004°04'0 0.0
2017-Nov-18 18:56N 51°58' E 004°04'0 0.0
2017-Nov-18 18:26N 51°58' E 004°04'0 0.0
2017-Nov-18 17:56N 51°58' E 004°04'0 0.0
2017-Nov-18 17:26N 51°58' E 004°04'0 0.0
2017-Nov-18 16:59N 51°58' E 004°04'0 0.0
2017-Nov-18 16:29N 51°58' E 004°04'0 0.0
2017-Nov-18 15:53N 51°58' E 004°04'0 0.0
2017-Nov-18 15:29N 51°58' E 004°04'0 0.0
2017-Nov-18 14:59N 51°58' E 004°04'0 0.0
2017-Nov-18 14:26N 51°58' E 004°04'0 0.0
2017-Nov-18 13:59N 51°58' E 004°04'0 0.0
2017-Nov-18 13:29N 51°58' E 004°04'0 0.0
2017-Nov-18 12:59N 51°58' E 004°04'0 0.0
2017-Nov-18 12:29N 51°58' E 004°04'0 0.0
2017-Nov-18 11:59N 51°58' E 004°04'0 0.0
2017-Nov-18 11:20N 51°58' E 004°04'0 0.0
2017-Nov-18 10:56N 51°58' E 004°04'0 0.0
2017-Nov-18 10:26N 51°58' E 004°04'0 0.0
2017-Nov-18 09:56N 51°58' E 004°04'0 0.0
2017-Nov-18 09:17N 51°58' E 004°04'0 0.0
2017-Nov-18 08:59N 51°58' E 004°04'0 0.0
2017-Nov-18 08:26N 51°58' E 004°04'0 0.0
2017-Nov-18 07:59N 51°58' E 004°04'0 0.0
2017-Nov-18 07:29N 51°58' E 004°04'0 0.0
2017-Nov-18 06:53N 51°58' E 004°04'0 0.0
2017-Nov-18 06:29N 51°58' E 004°04'0 0.0
2017-Nov-18 05:59N 51°58' E 004°04'0 0.0
2017-Nov-18 05:29N 51°58' E 004°04'0 0.0
2017-Nov-18 04:59N 51°58' E 004°04'0 0.0
2017-Nov-18 04:23N 51°58' E 004°04'0 0.0
2017-Nov-18 03:59N 51°58' E 004°04'0 0.0
2017-Nov-18 03:29N 51°58' E 004°04'0 0.0
2017-Nov-18 02:59N 51°58' E 004°04'0 0.0
2017-Nov-18 02:20N 51°58' E 004°04'0 0.0
2017-Nov-18 01:56N 51°58' E 004°04'0 0.0
2017-Nov-18 01:17N 51°58' E 004°04'0 0.0
2017-Nov-18 00:56N 51°58' E 004°04'0 0.0
2017-Nov-18 00:26N 51°58' E 004°04'0 0.0
2017-Nov-17 23:53N 51°58' E 004°04'0 0.0
2017-Nov-17 23:29N 51°58' E 004°04'0 0.0
2017-Nov-17 22:56N 51°58' E 004°04'0 0.0
2017-Nov-17 22:20N 51°58' E 004°04'0 0.0
2017-Nov-17 21:53N 51°58' E 004°04'0 0.0
2017-Nov-17 21:26N 51°58' E 004°04'0 0.0
2017-Nov-17 20:59N 51°58' E 004°04'0 0.0
2017-Nov-17 20:29N 51°58' E 004°04'0 0.0
2017-Nov-17 20:00N 51°58' E 004°04'0 0.9
2017-Nov-17 19:31N 51°58' E 004°05'2 4.8
2017-Nov-17 19:01N 51°59' E 004°02'4 8.2
2017-Nov-17 18:31N 52°00' E 003°56'4 7.9
2017-Nov-17 18:00N 52°01' E 003°49'4 8.5
2017-Nov-17 17:31N 52°00' E 003°42'510.3
2017-Nov-17 17:00N 52°04' E 003°37'4 7.3
2017-Nov-17 16:27N 52°07' E 003°32'2 5.0
2017-Nov-17 16:00N 52°09' E 003°32'2 2.9
2017-Nov-17 15:22N 52°11' E 003°34'0 0.2
2017-Nov-17 14:58N 52°11' E 003°34'0 0.0
2017-Nov-17 13:46N 52°11' E 003°34'0 0.0
2017-Nov-17 08:04N 52°10' E 003°33'0 0.0
2017-Nov-17 07:40N 52°10' E 003°33'0 0.0
2017-Nov-17 07:28N 52°10' E 003°33'0 0.0
2017-Nov-17 06:58N 52°10' E 003°33'0 0.0
2017-Nov-17 06:16N 52°10' E 003°33'0 0.0
2017-Nov-17 05:58N 52°10' E 003°33'0 0.0
2017-Nov-17 05:28N 52°10' E 003°33'0 0.1
2017-Nov-17 03:58N 52°11' E 003°34'0 0.1
2017-Nov-17 03:22N 52°11' E 003°34'0 0.0
2017-Nov-17 02:10N 52°11' E 003°34'0 0.0
2017-Nov-17 01:46N 52°11' E 003°34'0 0.1
2017-Nov-16 20:37N 52°10' E 003°33'0 0.1
2017-Nov-16 20:28N 52°10' E 003°33'0 0.0
2017-Nov-16 19:19N 52°10' E 003°33'0 0.0
2017-Nov-16 18:58N 52°10' E 003°33'0 0.1
2017-Nov-16 16:22N 52°11' E 003°34'0 0.1
2017-Nov-16 15:52N 52°11' E 003°34'0 0.1
2017-Nov-16 15:28N 52°11' E 003°34'0 0.0
2017-Nov-16 14:22N 52°11' E 003°34'0 0.0
2017-Nov-16 13:52N 52°11' E 003°34'0 0.0
2017-Nov-16 13:28N 52°11' E 003°34'0 0.0
2017-Nov-16 12:58N 52°11' E 003°34'0 0.1
2017-Nov-16 12:28N 52°11' E 003°34'1 1.2
2017-Nov-16 12:00N 52°11' E 003°33'4 6.6
2017-Nov-16 11:26N 52°12' E 003°27'27912.0
2017-Nov-15 12:08N 56°28' E 006°38'212.8
2017-Nov-15 11:59N 56°29' E 006°40'712.8
2017-Nov-15 11:29N 56°35' E 006°45'612.9
2017-Nov-15 10:59N 56°41' E 006°50'13511.2
2017-Nov-14 22:55N 57°49' E 010°25'512.6
2017-Nov-14 22:30N 57°49' E 010°35'611.9
2017-Nov-14 21:58N 57°48' E 010°47'5 9.3
2017-Nov-14 21:29N 57°46' E 010°54'3 6.8
2017-Nov-14 21:00N 57°43' E 010°56'612.0
2017-Nov-14 20:31N 57°39' E 011°04'612.3
2017-Nov-14 20:00N 57°35' E 011°12'612.4
2017-Nov-14 19:30N 57°31' E 011°21'611.8
2017-Nov-14 19:00N 57°26' E 011°27'612.0
2017-Nov-14 18:30N 57°20' E 011°30'612.2
2017-Nov-14 18:00N 57°14' E 011°34'612.1
2017-Nov-14 17:29N 57°09' E 011°38'611.9
2017-Nov-14 16:59N 57°03' E 011°42'611.7
2017-Nov-14 16:30N 56°57' E 011°45'9811.5
2017-Nov-14 07:55N 55°22' E 011°02'5 9.4
2017-Nov-14 07:26N 55°18' E 011°03'511.0
2017-Nov-14 06:58N 55°13' E 011°06'612.2
2017-Nov-14 06:26N 55°08' E 010°60'512.5
2017-Nov-14 06:01N 55°02' E 011°00'612.7
2017-Nov-14 05:31N 54°57' E 010°55'713.3
2017-Nov-14 05:01N 54°51' E 010°50'713.0
2017-Nov-14 04:30N 54°44' E 010°47'510.7
2017-Nov-14 04:00N 54°39' E 010°51'612.0
2017-Nov-14 03:31N 54°36' E 010°59'611.7
2017-Nov-14 03:01N 54°36' E 011°09'611.8
2017-Nov-14 02:31N 54°33' E 011°19'611.5
2017-Nov-14 02:01N 54°31' E 011°28'611.6
2017-Nov-14 01:31N 54°29' E 011°37'611.9
2017-Nov-14 01:00N 54°27' E 011°47'911.7
2017-Nov-14 00:17N 54°26' E 012°01'311.7
2017-Nov-14 00:00N 54°26' E 012°07'510.0
2017-Nov-13 23:31N 54°30' E 012°13'510.2
2017-Nov-13 23:01N 54°35' E 012°16'  

Dump ship's entire track history